sensor_id;sensor_type;location;lat;lon;timestamp;pressure;altitude;pressure_sealevel;temperature;humidity
78671;BME280;68277;52.724;6.516;2023-11-18T00:01:25;102405.09;;;1.27;100.00
78671;BME280;68277;52.724;6.516;2023-11-18T00:03:51;102408.84;;;1.33;100.00
78671;BME280;68277;52.724;6.516;2023-11-18T00:06:16;102387.66;;;1.26;100.00
78671;BME280;68277;52.724;6.516;2023-11-18T00:08:42;102380.44;;;1.19;100.00
78671;BME280;68277;52.724;6.516;2023-11-18T00:11:08;102434.66;;;1.48;100.00
78671;BME280;68277;52.724;6.516;2023-11-18T00:13:36;102433.31;;;1.37;100.00
78671;BME280;68277;52.724;6.516;2023-11-18T00:16:05;102414.47;;;1.22;100.00
78671;BME280;68277;52.724;6.516;2023-11-18T00:18:31;102399.25;;;1.12;100.00
78671;BME280;68277;52.724;6.516;2023-11-18T00:20:58;102398.50;;;1.14;100.00
78671;BME280;68277;52.724;6.516;2023-11-18T00:23:23;102426.03;;;1.28;100.00
78671;BME280;68277;52.724;6.516;2023-11-18T00:25:49;102410.19;;;1.24;100.00
78671;BME280;68277;52.724;6.516;2023-11-18T00:28:16;102318.78;;;0.78;100.00
78671;BME280;68277;52.724;6.516;2023-11-18T00:30:44;102428.28;;;1.42;100.00
78671;BME280;68277;52.724;6.516;2023-11-18T00:33:10;102382.91;;;1.16;100.00
78671;BME280;68277;52.724;6.516;2023-11-18T00:35:35;102412.09;;;1.28;100.00
78671;BME280;68277;52.724;6.516;2023-11-18T00:38:01;102373.22;;;1.13;100.00
78671;BME280;68277;52.724;6.516;2023-11-18T00:40:28;102378.63;;;1.18;100.00
78671;BME280;68277;52.724;6.516;2023-11-18T00:42:56;102384.94;;;1.23;100.00
78671;BME280;68277;52.724;6.516;2023-11-18T00:45:21;102365.31;;;1.10;100.00
78671;BME280;68277;52.724;6.516;2023-11-18T00:47:47;102354.63;;;1.04;100.00
78671;BME280;68277;52.724;6.516;2023-11-18T00:50:13;102392.84;;;1.24;100.00
78671;BME280;68277;52.724;6.516;2023-11-18T00:52:39;102374.22;;;1.15;100.00
78671;BME280;68277;52.724;6.516;2023-11-18T00:55:07;102424.97;;;1.46;100.00
78671;BME280;68277;52.724;6.516;2023-11-18T00:57:33;102426.75;;;1.47;100.00
78671;BME280;68277;52.724;6.516;2023-11-18T00:59:59;102425.94;;;1.48;100.00
78671;BME280;68277;52.724;6.516;2023-11-18T01:02:24;102389.38;;;1.25;100.00
78671;BME280;68277;52.724;6.516;2023-11-18T01:04:51;102398.31;;;1.32;100.00
78671;BME280;68277;52.724;6.516;2023-11-18T01:07:16;102403.63;;;1.33;100.00
78671;BME280;68277;52.724;6.516;2023-11-18T01:09:42;102433.88;;;1.51;100.00
78671;BME280;68277;52.724;6.516;2023-11-18T01:12:07;102401.16;;;1.36;100.00
78671;BME280;68277;52.724;6.516;2023-11-18T01:14:38;102391.34;;;1.31;100.00
78671;BME280;68277;52.724;6.516;2023-11-18T01:17:08;102376.09;;;1.19;100.00
78671;BME280;68277;52.724;6.516;2023-11-18T01:19:35;102440.13;;;1.56;100.00
78671;BME280;68277;52.724;6.516;2023-11-18T01:22:01;102435.81;;;1.56;100.00
78671;BME280;68277;52.724;6.516;2023-11-18T01:24:30;102365.59;;;1.18;100.00
78671;BME280;68277;52.724;6.516;2023-11-18T01:26:56;102440.41;;;1.62;100.00
78671;BME280;68277;52.724;6.516;2023-11-18T01:29:21;102390.81;;;1.39;100.00
78671;BME280;68277;52.724;6.516;2023-11-18T01:31:47;102424.78;;;1.63;100.00
78671;BME280;68277;52.724;6.516;2023-11-18T01:34:13;102444.19;;;1.70;100.00
78671;BME280;68277;52.724;6.516;2023-11-18T01:36:39;102421.97;;;1.57;100.00
78671;BME280;68277;52.724;6.516;2023-11-18T01:39:04;102442.59;;;1.73;100.00
78671;BME280;68277;52.724;6.516;2023-11-18T01:41:30;102370.03;;;1.41;100.00
78671;BME280;68277;52.724;6.516;2023-11-18T01:43:58;102437.56;;;1.78;100.00
78671;BME280;68277;52.724;6.516;2023-11-18T01:46:24;102438.56;;;1.81;100.00
78671;BME280;68277;52.724;6.516;2023-11-18T01:48:51;102403.03;;;1.63;100.00
78671;BME280;68277;52.724;6.516;2023-11-18T01:51:18;102392.66;;;1.64;100.00
78671;BME280;68277;52.724;6.516;2023-11-18T01:53:47;102432.75;;;1.88;100.00
78671;BME280;68277;52.724;6.516;2023-11-18T01:56:13;102395.44;;;1.69;100.00
78671;BME280;68277;52.724;6.516;2023-11-18T01:58:40;102354.81;;;1.53;100.00
78671;BME280;68277;52.724;6.516;2023-11-18T02:01:06;102377.81;;;1.63;100.00
78671;BME280;68277;52.724;6.516;2023-11-18T02:03:34;102409.91;;;1.83;100.00
78671;BME280;68277;52.724;6.516;2023-11-18T02:06:00;102420.88;;;1.96;100.00
78671;BME280;68277;52.724;6.516;2023-11-18T02:08:25;102385.22;;;1.75;100.00
78671;BME280;68277;52.724;6.516;2023-11-18T02:11:01;102402.38;;;1.90;100.00
78671;BME280;68277;52.724;6.516;2023-11-18T02:13:34;102409.66;;;1.99;100.00
78671;BME280;68277;52.724;6.516;2023-11-18T02:16:04;102343.47;;;1.75;100.00
78671;BME280;68277;52.724;6.516;2023-11-18T02:18:29;102401.25;;;2.07;100.00
78671;BME280;68277;52.724;6.516;2023-11-18T02:20:57;102386.16;;;1.99;100.00
78671;BME280;68277;52.724;6.516;2023-11-18T02:23:26;102400.47;;;2.10;100.00
78671;BME280;68277;52.724;6.516;2023-11-18T02:25:52;102408.38;;;2.12;100.00
78671;BME280;68277;52.724;6.516;2023-11-18T02:28:19;102311.53;;;1.58;100.00
78671;BME280;68277;52.724;6.516;2023-11-18T02:30:45;102399.41;;;2.05;100.00
78671;BME280;68277;52.724;6.516;2023-11-18T02:33:19;102400.31;;;2.05;100.00
78671;BME280;68277;52.724;6.516;2023-11-18T02:35:54;102423.50;;;2.20;100.00
78671;BME280;68277;52.724;6.516;2023-11-18T02:38:30;102391.31;;;1.97;100.00
78671;BME280;68277;52.724;6.516;2023-11-18T02:41:06;102364.81;;;1.87;100.00
78671;BME280;68277;52.724;6.516;2023-11-18T02:43:35;102405.00;;;2.14;100.00
78671;BME280;68277;52.724;6.516;2023-11-18T02:46:03;102381.94;;;2.02;100.00
78671;BME280;68277;52.724;6.516;2023-11-18T02:48:29;102421.06;;;2.25;100.00
78671;BME280;68277;52.724;6.516;2023-11-18T02:50:59;102418.56;;;2.28;100.00
78671;BME280;68277;52.724;6.516;2023-11-18T02:53:25;102377.75;;;2.07;100.00
78671;BME280;68277;52.724;6.516;2023-11-18T02:56:13;102416.94;;;2.31;100.00
78671;BME280;68277;52.724;6.516;2023-11-18T02:58:39;102380.72;;;2.17;100.00
78671;BME280;68277;52.724;6.516;2023-11-18T03:01:04;102356.16;;;2.12;100.00
78671;BME280;68277;52.724;6.516;2023-11-18T03:03:30;102405.03;;;2.39;100.00
78671;BME280;68277;52.724;6.516;2023-11-18T03:05:55;102332.34;;;2.02;100.00
78671;BME280;68277;52.724;6.516;2023-11-18T03:08:21;102372.59;;;2.33;100.00
78671;BME280;68277;52.724;6.516;2023-11-18T03:10:47;102326.25;;;2.03;100.00
78671;BME280;68277;52.724;6.516;2023-11-18T03:13:12;102347.13;;;2.27;100.00
78671;BME280;68277;52.724;6.516;2023-11-18T03:15:38;102381.84;;;2.48;100.00
78671;BME280;68277;52.724;6.516;2023-11-18T03:18:04;102400.53;;;2.59;100.00
78671;BME280;68277;52.724;6.516;2023-11-18T03:20:32;102375.81;;;2.49;100.00
78671;BME280;68277;52.724;6.516;2023-11-18T03:23:00;102352.00;;;2.42;100.00
78671;BME280;68277;52.724;6.516;2023-11-18T03:25:28;102335.13;;;2.32;100.00
78671;BME280;68277;52.724;6.516;2023-11-18T03:27:54;102379.94;;;2.68;100.00
78671;BME280;68277;52.724;6.516;2023-11-18T03:30:20;102343.84;;;2.58;100.00
78671;BME280;68277;52.724;6.516;2023-11-18T03:32:45;102316.09;;;2.36;100.00
78671;BME280;68277;52.724;6.516;2023-11-18T03:35:11;102387.03;;;2.72;100.00
78671;BME280;68277;52.724;6.516;2023-11-18T03:37:40;102379.06;;;2.69;100.00
78671;BME280;68277;52.724;6.516;2023-11-18T03:42:33;102335.88;;;2.53;100.00
78671;BME280;68277;52.724;6.516;2023-11-18T03:44:58;102327.97;;;2.52;100.00
78671;BME280;68277;52.724;6.516;2023-11-18T03:47:24;102389.94;;;2.81;100.00
78671;BME280;68277;52.724;6.516;2023-11-18T03:49:50;102390.84;;;2.82;100.00
78671;BME280;68277;52.724;6.516;2023-11-18T03:52:16;102364.28;;;2.69;100.00
78671;BME280;68277;52.724;6.516;2023-11-18T03:54:41;102376.09;;;2.84;100.00
78671;BME280;68277;52.724;6.516;2023-11-18T03:57:07;102335.19;;;2.59;100.00
78671;BME280;68277;52.724;6.516;2023-11-18T03:59:36;102369.16;;;2.84;100.00
78671;BME280;68277;52.724;6.516;2023-11-18T04:02:01;102316.94;;;2.60;100.00
78671;BME280;68277;52.724;6.516;2023-11-18T04:04:27;102320.59;;;2.65;100.00
78671;BME280;68277;52.724;6.516;2023-11-18T04:06:52;102294.94;;;2.54;100.00
78671;BME280;68277;52.724;6.516;2023-11-18T04:09:18;102268.53;;;2.45;100.00
78671;BME280;68277;52.724;6.516;2023-11-18T04:11:45;102358.06;;;2.91;100.00
78671;BME280;68277;52.724;6.516;2023-11-18T04:14:13;102271.34;;;2.52;100.00
78671;BME280;68277;52.724;6.516;2023-11-18T04:16:39;102339.00;;;2.95;100.00
78671;BME280;68277;52.724;6.516;2023-11-18T04:19:05;102230.03;;;2.41;100.00
78671;BME280;68277;52.724;6.516;2023-11-18T04:21:31;102333.88;;;2.98;100.00
78671;BME280;68277;52.724;6.516;2023-11-18T04:23:57;102247.16;;;2.58;100.00
78671;BME280;68277;52.724;6.516;2023-11-18T04:26:22;102287.94;;;2.80;100.00
78671;BME280;68277;52.724;6.516;2023-11-18T04:28:49;102231.44;;;2.56;100.00
78671;BME280;68277;52.724;6.516;2023-11-18T04:31:15;102302.75;;;3.06;100.00
78671;BME280;68277;52.724;6.516;2023-11-18T04:33:41;102242.47;;;2.74;100.00
78671;BME280;68277;52.724;6.516;2023-11-18T04:36:07;102293.09;;;3.05;100.00
78671;BME280;68277;52.724;6.516;2023-11-18T04:38:35;102273.53;;;2.92;100.00
78671;BME280;68277;52.724;6.516;2023-11-18T04:41:03;102286.13;;;3.04;100.00
78671;BME280;68277;52.724;6.516;2023-11-18T04:43:29;102314.44;;;3.18;100.00
78671;BME280;68277;52.724;6.516;2023-11-18T04:45:56;102300.41;;;3.15;100.00
78671;BME280;68277;52.724;6.516;2023-11-18T04:48:21;102295.19;;;3.15;100.00
78671;BME280;68277;52.724;6.516;2023-11-18T04:50:47;102241.00;;;2.83;100.00
78671;BME280;68277;52.724;6.516;2023-11-18T04:53:13;102245.63;;;2.91;100.00
78671;BME280;68277;52.724;6.516;2023-11-18T04:55:39;102296.38;;;3.26;100.00
78671;BME280;68277;52.724;6.516;2023-11-18T04:58:05;102264.75;;;3.18;100.00
78671;BME280;68277;52.724;6.516;2023-11-18T05:00:32;102219.59;;;2.96;100.00
78671;BME280;68277;52.724;6.516;2023-11-18T05:02:58;102253.34;;;3.16;100.00
78671;BME280;68277;52.724;6.516;2023-11-18T05:05:24;102284.50;;;3.37;100.00
78671;BME280;68277;52.724;6.516;2023-11-18T05:07:49;102279.25;;;3.37;100.00
78671;BME280;68277;52.724;6.516;2023-11-18T05:10:17;102275.81;;;3.38;100.00
78671;BME280;68277;52.724;6.516;2023-11-18T05:12:44;102232.06;;;3.04;100.00
78671;BME280;68277;52.724;6.516;2023-11-18T05:15:09;102226.75;;;3.01;100.00
78671;BME280;68277;52.724;6.516;2023-11-18T05:17:38;102285.50;;;3.40;100.00
78671;BME280;68277;52.724;6.516;2023-11-18T05:20:04;102282.97;;;3.43;100.00
78671;BME280;68277;52.724;6.516;2023-11-18T05:22:33;102250.16;;;3.25;100.00
78671;BME280;68277;52.724;6.516;2023-11-18T05:24:58;102243.03;;;3.21;100.00
78671;BME280;68277;52.724;6.516;2023-11-18T05:27:24;102221.59;;;3.04;100.00
78671;BME280;68277;52.724;6.516;2023-11-18T05:29:51;102273.47;;;3.47;100.00
78671;BME280;68277;52.724;6.516;2023-11-18T05:32:20;102199.16;;;3.11;100.00
78671;BME280;68277;52.724;6.516;2023-11-18T05:34:52;102230.97;;;3.26;100.00
78671;BME280;68277;52.724;6.516;2023-11-18T05:37:20;102233.63;;;3.27;100.00
78671;BME280;68277;52.724;6.516;2023-11-18T05:39:46;102218.53;;;3.17;100.00
78671;BME280;68277;52.724;6.516;2023-11-18T05:42:11;102206.25;;;3.15;100.00
78671;BME280;68277;52.724;6.516;2023-11-18T05:44:38;102209.78;;;3.17;100.00
78671;BME280;68277;52.724;6.516;2023-11-18T05:47:08;102231.06;;;3.29;100.00
78671;BME280;68277;52.724;6.516;2023-11-18T05:49:37;102252.38;;;3.41;100.00
78671;BME280;68277;52.724;6.516;2023-11-18T05:52:03;102207.31;;;3.21;100.00
78671;BME280;68277;52.724;6.516;2023-11-18T05:54:29;102270.06;;;3.50;100.00
78671;BME280;68277;52.724;6.516;2023-11-18T05:56:55;102260.28;;;3.44;100.00
78671;BME280;68277;52.724;6.516;2023-11-18T05:59:21;102272.81;;;3.54;100.00
78671;BME280;68277;52.724;6.516;2023-11-18T06:01:47;102241.81;;;3.38;100.00
78671;BME280;68277;52.724;6.516;2023-11-18T06:04:13;102222.47;;;3.33;100.00
78671;BME280;68277;52.724;6.516;2023-11-18T06:06:39;102216.31;;;3.31;100.00
78671;BME280;68277;52.724;6.516;2023-11-18T06:09:05;102254.53;;;3.56;100.00
78671;BME280;68277;52.724;6.516;2023-11-18T06:11:34;102227.03;;;3.40;100.00
78671;BME280;68277;52.724;6.516;2023-11-18T06:14:00;102180.97;;;3.15;100.00
78671;BME280;68277;52.724;6.516;2023-11-18T06:16:26;102222.69;;;3.40;100.00
78671;BME280;68277;52.724;6.516;2023-11-18T06:18:57;102262.53;;;3.60;100.00
78671;BME280;68277;52.724;6.516;2023-11-18T06:21:25;102196.16;;;3.28;100.00
78671;BME280;68277;52.724;6.516;2023-11-18T06:23:53;102227.38;;;3.52;100.00
78671;BME280;68277;52.724;6.516;2023-11-18T06:26:20;102242.50;;;3.62;100.00
78671;BME280;68277;52.724;6.516;2023-11-18T06:28:47;102225.66;;;3.53;100.00
78671;BME280;68277;52.724;6.516;2023-11-18T06:31:14;102245.16;;;3.64;100.00
78671;BME280;68277;52.724;6.516;2023-11-18T06:33:44;102171.50;;;3.20;100.00
78671;BME280;68277;52.724;6.516;2023-11-18T06:38:40;102200.91;;;3.41;100.00
78671;BME280;68277;52.724;6.516;2023-11-18T06:41:06;102221.19;;;3.49;100.00
78671;BME280;68277;52.724;6.516;2023-11-18T06:43:38;102189.56;;;3.41;100.00
78671;BME280;68277;52.724;6.516;2023-11-18T06:46:29;102191.31;;;3.42;100.00
78671;BME280;68277;52.724;6.516;2023-11-18T06:48:59;102203.78;;;3.51;100.00
78671;BME280;68277;52.724;6.516;2023-11-18T06:51:26;102208.22;;;3.53;100.00
78671;BME280;68277;52.724;6.516;2023-11-18T06:53:56;102249.72;;;3.71;100.00
78671;BME280;68277;52.724;6.516;2023-11-18T06:56:26;102248.78;;;3.69;100.00
78671;BME280;68277;52.724;6.516;2023-11-18T06:58:51;102243.41;;;3.63;100.00
78671;BME280;68277;52.724;6.516;2023-11-18T07:01:17;102260.19;;;3.71;100.00
78671;BME280;68277;52.724;6.516;2023-11-18T07:03:47;102234.44;;;3.55;100.00
78671;BME280;68277;52.724;6.516;2023-11-18T07:06:21;102266.34;;;3.73;100.00
78671;BME280;68277;52.724;6.516;2023-11-18T07:08:52;102185.59;;;3.25;100.00
78671;BME280;68277;52.724;6.516;2023-11-18T07:11:19;102213.34;;;3.49;100.00
78671;BME280;68277;52.724;6.516;2023-11-18T07:13:47;102244.25;;;3.63;100.00
78671;BME280;68277;52.724;6.516;2023-11-18T07:16:13;102250.41;;;3.64;100.00
78671;BME280;68277;52.724;6.516;2023-11-18T07:18:39;102190.16;;;3.32;100.00
78671;BME280;68277;52.724;6.516;2023-11-18T07:21:05;102175.16;;;3.25;100.00
78671;BME280;68277;52.724;6.516;2023-11-18T07:23:32;102266.44;;;3.76;100.00
78671;BME280;68277;52.724;6.516;2023-11-18T07:25:58;102249.50;;;3.63;100.00
78671;BME280;68277;52.724;6.516;2023-11-18T07:28:24;102256.53;;;3.64;100.00
78671;BME280;68277;52.724;6.516;2023-11-18T07:30:49;102280.47;;;3.78;100.00
78671;BME280;68277;52.724;6.516;2023-11-18T07:33:18;102247.75;;;3.62;100.00
78671;BME280;68277;52.724;6.516;2023-11-18T07:35:48;102212.34;;;3.45;100.00
78671;BME280;68277;52.724;6.516;2023-11-18T07:38:17;102224.91;;;3.57;100.00
78671;BME280;68277;52.724;6.516;2023-11-18T07:40:46;102219.56;;;3.54;100.00
78671;BME280;68277;52.724;6.516;2023-11-18T07:43:15;102270.09;;;3.81;100.00
78671;BME280;68277;52.724;6.516;2023-11-18T07:45:41;102274.47;;;3.82;100.00
78671;BME280;68277;52.724;6.516;2023-11-18T07:48:11;102208.84;;;3.44;100.00
78671;BME280;68277;52.724;6.516;2023-11-18T07:50:38;102223.06;;;3.54;100.00
78671;BME280;68277;52.724;6.516;2023-11-18T07:53:06;102207.25;;;3.50;100.00
78671;BME280;68277;52.724;6.516;2023-11-18T07:55:33;102269.28;;;3.83;100.00
78671;BME280;68277;52.724;6.516;2023-11-18T07:58:03;102269.31;;;3.85;100.00
78671;BME280;68277;52.724;6.516;2023-11-18T08:00:42;102241.84;;;3.69;100.00
78671;BME280;68277;52.724;6.516;2023-11-18T08:03:09;102254.25;;;3.76;100.00
78671;BME280;68277;52.724;6.516;2023-11-18T08:05:43;102246.28;;;3.72;100.00
78671;BME280;68277;52.724;6.516;2023-11-18T08:08:12;102270.22;;;3.85;100.00
78671;BME280;68277;52.724;6.516;2023-11-18T08:10:39;102251.63;;;3.76;100.00
78671;BME280;68277;52.724;6.516;2023-11-18T08:13:07;102260.66;;;3.87;100.00
78671;BME280;68277;52.724;6.516;2023-11-18T08:15:40;102248.41;;;3.86;100.00
78671;BME280;68277;52.724;6.516;2023-11-18T08:18:06;102247.44;;;3.83;100.00
78671;BME280;68277;52.724;6.516;2023-11-18T08:20:32;102226.34;;;3.77;100.00
78671;BME280;68277;52.724;6.516;2023-11-18T08:22:58;102251.09;;;3.89;100.00
78671;BME280;68277;52.724;6.516;2023-11-18T08:25:23;102195.41;;;3.62;100.00
78671;BME280;68277;52.724;6.516;2023-11-18T08:27:53;102201.56;;;3.64;100.00
78671;BME280;68277;52.724;6.516;2023-11-18T08:30:18;102202.78;;;3.77;100.00
78671;BME280;68277;52.724;6.516;2023-11-18T08:32:46;102232.97;;;3.95;100.00
78671;BME280;68277;52.724;6.516;2023-11-18T08:35:13;102183.22;;;3.64;100.00
78671;BME280;68277;52.724;6.516;2023-11-18T08:37:40;102212.81;;;3.93;100.00
78671;BME280;68277;52.724;6.516;2023-11-18T08:40:08;102192.66;;;3.90;100.00
78671;BME280;68277;52.724;6.516;2023-11-18T08:42:44;102174.13;;;3.83;100.00
78671;BME280;68277;52.724;6.516;2023-11-18T08:45:26;102192.22;;;4.06;100.00
78671;BME280;68277;52.724;6.516;2023-11-18T08:47:58;102187.88;;;4.08;100.00
78671;BME280;68277;52.724;6.516;2023-11-18T08:50:25;102180.94;;;4.10;100.00
78671;BME280;68277;52.724;6.516;2023-11-18T08:52:52;102106.81;;;3.79;100.00
78671;BME280;68277;52.724;6.516;2023-11-18T08:55:27;102163.53;;;4.12;100.00
78671;BME280;68277;52.724;6.516;2023-11-18T08:58:13;102151.19;;;4.07;100.00
78671;BME280;68277;52.724;6.516;2023-11-18T09:00:51;102161.00;;;4.15;100.00
78671;BME280;68277;52.724;6.516;2023-11-18T09:03:18;102092.88;;;3.80;100.00
78671;BME280;68277;52.724;6.516;2023-11-18T09:05:55;102138.09;;;4.07;100.00
78671;BME280;68277;52.724;6.516;2023-11-18T09:08:34;102107.94;;;3.88;100.00
78671;BME280;68277;52.724;6.516;2023-11-18T09:11:09;102136.53;;;4.15;100.00
78671;BME280;68277;52.724;6.516;2023-11-18T09:13:48;102150.66;;;4.22;100.00
78671;BME280;68277;52.724;6.516;2023-11-18T09:16:16;102112.81;;;4.09;100.00
78671;BME280;68277;52.724;6.516;2023-11-18T09:18:43;102117.19;;;4.10;100.00
78671;BME280;68277;52.724;6.516;2023-11-18T09:21:12;102102.16;;;4.03;100.00
78671;BME280;68277;52.724;6.516;2023-11-18T09:23:45;102081.06;;;3.95;100.00
78671;BME280;68277;52.724;6.516;2023-11-18T09:26:13;102097.97;;;4.09;100.00
78671;BME280;68277;52.724;6.516;2023-11-18T09:28:40;102088.38;;;4.10;100.00
78671;BME280;68277;52.724;6.516;2023-11-18T09:31:06;102078.78;;;4.10;100.00
78671;BME280;68277;52.724;6.516;2023-11-18T09:33:37;102091.06;;;4.13;100.00
78671;BME280;68277;52.724;6.516;2023-11-18T09:36:08;102074.34;;;4.08;100.00
78671;BME280;68277;52.724;6.516;2023-11-18T09:38:38;102127.53;;;4.40;100.00
78671;BME280;68277;52.724;6.516;2023-11-18T09:41:10;102128.47;;;4.43;100.00
78671;BME280;68277;52.724;6.516;2023-11-18T09:43:40;102123.31;;;4.46;100.00
78671;BME280;68277;52.724;6.516;2023-11-18T09:48:51;102119.88;;;4.49;100.00
78671;BME280;68277;52.724;6.516;2023-11-18T09:51:33;102124.38;;;4.54;100.00
78671;BME280;68277;52.724;6.516;2023-11-18T09:54:03;102129.72;;;4.59;100.00
78671;BME280;68277;52.724;6.516;2023-11-18T10:01:53;102055.88;;;4.39;100.00
78671;BME280;68277;52.724;6.516;2023-11-18T10:04:23;102088.69;;;4.62;100.00
78671;BME280;68277;52.724;6.516;2023-11-18T10:06:53;102029.41;;;4.29;100.00
78671;BME280;68277;52.724;6.516;2023-11-18T10:09:19;102025.13;;;4.32;100.00
78671;BME280;68277;52.724;6.516;2023-11-18T10:11:54;102085.19;;;4.62;100.00
78671;BME280;68277;52.724;6.516;2023-11-18T10:14:33;102038.50;;;4.43;100.00
78671;BME280;68277;52.724;6.516;2023-11-18T10:17:03;102066.91;;;4.65;100.00
78671;BME280;68277;52.724;6.516;2023-11-18T10:19:49;102078.31;;;4.67;100.00
78671;BME280;68277;52.724;6.516;2023-11-18T10:22:23;102028.81;;;4.40;100.00
78671;BME280;68277;52.724;6.516;2023-11-18T10:24:52;102044.78;;;4.52;100.00
78671;BME280;68277;52.724;6.516;2023-11-18T10:27:24;102027.13;;;4.44;100.00
78671;BME280;68277;52.724;6.516;2023-11-18T10:29:55;102053.69;;;4.59;100.00
78671;BME280;68277;52.724;6.516;2023-11-18T10:32:21;102043.16;;;4.57;100.00
78671;BME280;68277;52.724;6.516;2023-11-18T10:34:48;102068.00;;;4.76;100.00
78671;BME280;68277;52.724;6.516;2023-11-18T10:37:16;102066.28;;;4.76;100.00
78671;BME280;68277;52.724;6.516;2023-11-18T10:39:46;102032.75;;;4.62;100.00
78671;BME280;68277;52.724;6.516;2023-11-18T10:42:13;102054.91;;;4.76;100.00
78671;BME280;68277;52.724;6.516;2023-11-18T10:44:54;102037.41;;;4.75;100.00
78671;BME280;68277;52.724;6.516;2023-11-18T10:47:21;102006.44;;;4.57;100.00
78671;BME280;68277;52.724;6.516;2023-11-18T10:49:50;101994.06;;;4.50;100.00
78671;BME280;68277;52.724;6.516;2023-11-18T10:52:16;101998.66;;;4.60;100.00
78671;BME280;68277;52.724;6.516;2023-11-18T10:54:52;101997.81;;;4.61;100.00
78671;BME280;68277;52.724;6.516;2023-11-18T10:57:24;101975.78;;;4.53;100.00
78671;BME280;68277;52.724;6.516;2023-11-18T11:00:03;101958.16;;;4.46;100.00
78671;BME280;68277;52.724;6.516;2023-11-18T11:02:41;102010.44;;;4.82;100.00
78671;BME280;68277;52.724;6.516;2023-11-18T11:05:08;102009.53;;;4.80;100.00
78671;BME280;68277;52.724;6.516;2023-11-18T11:07:41;102006.97;;;4.83;100.00
78671;BME280;68277;52.724;6.516;2023-11-18T11:10:09;101908.88;;;4.29;100.00
78671;BME280;68277;52.724;6.516;2023-11-18T11:12:46;101951.25;;;4.50;100.00
78671;BME280;68277;52.724;6.516;2023-11-18T11:15:28;102014.91;;;4.88;100.00
78671;BME280;68277;52.724;6.516;2023-11-18T11:18:11;101928.59;;;4.52;100.00
78671;BME280;68277;52.724;6.516;2023-11-18T11:23:31;102003.59;;;4.90;100.00
78671;BME280;68277;52.724;6.516;2023-11-18T11:26:50;101988.81;;;4.92;100.00
78671;BME280;68277;52.724;6.516;2023-11-18T11:29:32;101985.31;;;4.93;100.00
78671;BME280;68277;52.724;6.516;2023-11-18T11:32:32;101948.28;;;4.76;100.00
78671;BME280;68277;52.724;6.516;2023-11-18T11:35:07;101946.44;;;4.72;100.00
78671;BME280;68277;52.724;6.516;2023-11-18T11:37:43;101938.56;;;4.71;100.00
78671;BME280;68277;52.724;6.516;2023-11-18T11:40:09;101947.50;;;4.82;100.00
78671;BME280;68277;52.724;6.516;2023-11-18T11:42:39;101939.50;;;4.74;100.00
78671;BME280;68277;52.724;6.516;2023-11-18T11:45:05;101941.31;;;4.78;100.00
78671;BME280;68277;52.724;6.516;2023-11-18T11:47:47;101908.75;;;4.66;100.00
78671;BME280;68277;52.724;6.516;2023-11-18T11:50:26;101950.38;;;4.96;100.00
78671;BME280;68277;52.724;6.516;2023-11-18T11:53:05;101942.44;;;4.93;100.00
78671;BME280;68277;52.724;6.516;2023-11-18T11:55:38;101941.59;;;4.94;100.00
78671;BME280;68277;52.724;6.516;2023-11-18T11:58:30;101940.72;;;4.93;100.00
78671;BME280;68277;52.724;6.516;2023-11-18T12:01:14;101932.81;;;4.92;100.00
78671;BME280;68277;52.724;6.516;2023-11-18T12:03:43;101935.47;;;4.93;100.00
78671;BME280;68277;52.724;6.516;2023-11-18T12:06:17;101845.47;;;4.46;100.00
78671;BME280;68277;52.724;6.516;2023-11-18T12:08:46;101887.88;;;4.72;100.00
78671;BME280;68277;52.724;6.516;2023-11-18T12:11:13;101900.25;;;4.79;100.00
78671;BME280;68277;52.724;6.516;2023-11-18T12:13:59;101892.50;;;4.87;100.00
78671;BME280;68277;52.724;6.516;2023-11-18T12:17:07;101900.47;;;4.93;100.00
78671;BME280;68277;52.724;6.516;2023-11-18T12:19:39;101861.72;;;4.76;100.00
78671;BME280;68277;52.724;6.516;2023-11-18T12:22:18;101839.69;;;4.64;100.00
78671;BME280;68277;52.724;6.516;2023-11-18T12:27:43;101823.19;;;4.71;100.00
78671;BME280;68277;52.724;6.516;2023-11-18T12:33:03;101811.81;;;4.70;100.00
78671;BME280;68277;52.724;6.516;2023-11-18T12:41:53;101793.59;;;4.78;100.00
78671;BME280;68277;52.724;6.516;2023-11-18T12:46:52;101786.78;;;4.91;100.00
78671;BME280;68277;52.724;6.516;2023-11-18T12:49:22;101800.09;;;5.03;100.00
78671;BME280;68277;52.724;6.516;2023-11-18T12:51:52;101791.38;;;5.04;100.00
78671;BME280;68277;52.724;6.516;2023-11-18T12:54:28;101779.13;;;5.04;100.00
78671;BME280;68277;52.724;6.516;2023-11-18T12:56:57;101773.88;;;5.03;100.00
78671;BME280;68277;52.724;6.516;2023-11-18T12:59:22;101732.47;;;4.82;100.00
78671;BME280;68277;52.724;6.516;2023-11-18T13:01:51;101775.66;;;5.05;100.00
78671;BME280;68277;52.724;6.516;2023-11-18T13:04:25;101759.91;;;5.04;100.00
78671;BME280;68277;52.724;6.516;2023-11-18T13:06:52;101736.06;;;4.90;100.00
78671;BME280;68277;52.724;6.516;2023-11-18T13:09:18;101729.03;;;4.88;100.00
78671;BME280;68277;52.724;6.516;2023-11-18T13:12:02;101754.72;;;5.10;100.00
78671;BME280;68277;52.724;6.516;2023-11-18T13:14:32;101723.00;;;4.95;100.00
78671;BME280;68277;52.724;6.516;2023-11-18T13:17:08;101752.13;;;5.11;100.00
78671;BME280;68277;52.724;6.516;2023-11-18T13:19:34;101751.28;;;5.12;100.00
78671;BME280;68277;52.724;6.516;2023-11-18T13:22:01;101746.97;;;5.16;100.00
78671;BME280;68277;52.724;6.516;2023-11-18T13:24:29;101727.59;;;5.06;100.00
78671;BME280;68277;52.724;6.516;2023-11-18T13:26:56;101721.47;;;5.07;100.00
78671;BME280;68277;52.724;6.516;2023-11-18T13:29:29;101718.94;;;5.16;100.00
78671;BME280;68277;52.724;6.516;2023-11-18T13:31:54;101705.81;;;5.13;100.00